This is the latest recevied weather packets stored in our database for station/object KG7MRB. If no packets are shown the sender has not sent any weather packets the latest 10 day(s).
| Time | Temp. | Humidity | Pressure | Rain* | Wind** | Luminosity | Snow |
|---|---|---|---|---|---|---|---|
| 1777958274 | 17.78° C | 67% | 1028.3 hPa | 0 mm | - | 0 W/m² | - |
| 1777957972 | 17.78° C | 69% | 1028.3 hPa | 0 mm | - | 0 W/m² | - |
| 1777957670 | 18.33° C | 65% | 1028.3 hPa | 0 mm | - | 0 W/m² | - |
| 1777957369 | 18.33° C | 66% | 1028.2 hPa | 0 mm | - | 0 W/m² | - |
| 1777957064 | 18.89° C | 66% | 1028 hPa | 0 mm | - | 0 W/m² | - |
| 1777956762 | 17.78° C | 68% | 1028.2 hPa | 0 mm | - | 0 W/m² | - |
| 1777956458 | 17.78° C | 68% | 1028 hPa | 0 mm | - | 0 W/m² | - |
| 1777956155 | 17.22° C | 74% | 1028.1 hPa | 0 mm | - | 0 W/m² | - |
| 1777955851 | 16.11° C | 78% | 1027.8 hPa | 0 mm | - | 0 W/m² | - |
| 1777955542 | 16.11° C | 78% | 1028.1 hPa | 0 mm | - | 0 W/m² | - |
| 1777955238 | 16.67° C | 77% | 1027.9 hPa | 0 mm | - | 0 W/m² | - |
| 1777954936 | 16.67° C | 77% | 1027.7 hPa | 0 mm | - | 0 W/m² | - |
| 1777954633 | 17.22° C | 77% | 1027.5 hPa | 0 mm | - | 0 W/m² | - |
| 1777954330 | 17.22° C | 75% | 1027.7 hPa | 0 mm | - | 0 W/m² | - |
| 1777954027 | 17.78° C | 73% | 1027.5 hPa | 0 mm | - | 0 W/m² | - |
| 1777953724 | 17.78° C | 73% | 1027.6 hPa | 0 mm | - | 0 W/m² | - |
| 1777953421 | 18.33° C | 71% | 1027.5 hPa | 0 mm | - | 0 W/m² | - |
| 1777953117 | 18.33° C | 68% | 1027.4 hPa | 0 mm | - | 0 W/m² | - |
| 1777952813 | 17.78° C | 67% | 1027.2 hPa | 0 mm | - | 0 W/m² | - |
| 1777952511 | 17.78° C | 73% | 1027.4 hPa | 0 mm | - | 1 W/m² | - |
| 1777952207 | 18.33° C | 73% | 1027.3 hPa | 0 mm | - | 1 W/m² | - |
| 1777951905 | 18.33° C | 72% | 1027.4 hPa | 0 mm | - | 2 W/m² | - |
| 1777951603 | 18.89° C | 71% | 1027.2 hPa | 0 mm | - | 4 W/m² | - |
| 1777951299 | 18.89° C | 70% | 1027.1 hPa | 0 mm | - | 5 W/m² | - |
| 1777950996 | 19.44° C | 69% | 1027.1 hPa | 0 mm | - | 7 W/m² | - |
* Rain latest hour (hover to see other rain measurements)
** Current wind speed in m/s (hover to see current wind gust speed)